createdAt,value
2023-02-17T00:04:25.076Z,7.9
2023-02-17T00:19:59.484Z,8
2023-02-17T00:35:33.889Z,8
2023-02-17T00:51:08.272Z,7.7
2023-02-17T01:06:42.725Z,7.6
2023-02-17T01:22:17.143Z,7.9
2023-02-17T01:37:51.548Z,8.1
2023-02-17T01:53:25.977Z,8.4
2023-02-17T02:09:00.159Z,8.7
2023-02-17T02:24:34.562Z,8.9
2023-02-17T02:40:09.012Z,8.9
2023-02-17T02:55:43.458Z,8.9
2023-02-17T03:11:17.850Z,8.9
2023-02-17T03:26:52.252Z,8.9
2023-02-17T03:42:26.653Z,8.9
2023-02-17T03:58:01.052Z,8.9
2023-02-17T04:13:35.495Z,9
2023-02-17T04:29:10.000Z,9
2023-02-17T04:44:44.392Z,9
2023-02-17T05:00:18.844Z,9
2023-02-17T05:15:53.569Z,9
2023-02-17T05:31:28.703Z,9
2023-02-17T05:47:03.181Z,9.1
2023-02-17T06:02:37.687Z,9.2
2023-02-17T06:18:12.163Z,9.2
2023-02-17T06:33:46.640Z,9.2
2023-02-17T06:49:21.056Z,9.2
2023-02-17T07:04:55.577Z,9.2
2023-02-17T07:20:30.081Z,9.4
2023-02-17T07:36:05.708Z,9.5
2023-02-17T07:51:40.184Z,9.5
2023-02-17T08:07:14.603Z,9.8
2023-02-17T08:22:49.068Z,10.3
2023-02-17T08:38:23.549Z,10.8
2023-02-17T08:53:58.210Z,11
2023-02-17T09:09:32.848Z,11.4
2023-02-17T09:25:07.372Z,11.7
2023-02-17T09:40:41.965Z,12.2
2023-02-17T09:56:16.454Z,12.2
2023-02-17T10:11:51.141Z,12.3
2023-02-17T10:27:25.893Z,12.7
2023-02-17T10:43:00.374Z,12.9
2023-02-17T10:58:34.879Z,12.8
2023-02-17T11:14:09.485Z,13.1
2023-02-17T11:29:43.995Z,13.3
2023-02-17T11:45:18.473Z,13
2023-02-17T12:00:53.070Z,13.1
2023-02-17T12:16:27.671Z,13
2023-02-17T12:32:03.153Z,13
2023-02-17T12:47:37.653Z,13.2
2023-02-17T13:03:12.251Z,13.3
2023-02-17T13:18:47.360Z,13.9
2023-02-17T13:34:22.369Z,14.3
2023-02-17T13:49:56.981Z,14.8
2023-02-17T14:05:31.597Z,14.7
2023-02-17T14:21:07.937Z,14.6
2023-02-17T14:36:43.150Z,14.2
2023-02-17T14:52:17.730Z,14.1
2023-02-17T15:07:52.259Z,14
2023-02-17T15:23:26.901Z,14.1
2023-02-17T15:39:01.440Z,14
2023-02-17T15:54:35.942Z,13.7
2023-02-17T16:10:10.466Z,13.8
2023-02-17T16:25:44.942Z,13.6
2023-02-17T16:41:19.489Z,13.5
2023-02-17T16:56:54.096Z,13.4
2023-02-17T17:12:28.573Z,13.4
2023-02-17T17:28:03.174Z,13.3
2023-02-17T17:43:37.658Z,13.3
2023-02-17T17:59:12.130Z,13.3
2023-02-17T18:14:46.628Z,13.3
2023-02-17T18:30:21.385Z,13.1
2023-02-17T18:45:56.081Z,12.9
2023-02-17T19:01:31.236Z,12.8
2023-02-17T19:17:05.893Z,12.5
2023-02-17T19:32:40.404Z,11.1
2023-02-17T19:48:14.818Z,10.3
2023-02-17T20:03:49.234Z,10.3
2023-02-17T20:19:23.653Z,10.5
2023-02-17T20:34:58.102Z,10.5
2023-02-17T20:50:32.549Z,10.7
2023-02-17T21:06:08.486Z,10.7
2023-02-17T21:21:43.082Z,10.7
2023-02-17T21:37:17.503Z,10.6
2023-02-17T21:52:51.961Z,10.7
2023-02-17T22:08:26.456Z,10.8
2023-02-17T22:24:00.941Z,10.9
2023-02-17T22:39:35.404Z,11
2023-02-17T22:55:09.856Z,11
2023-02-17T23:10:44.303Z,11.1
2023-02-17T23:26:18.729Z,11.1
2023-02-17T23:41:53.175Z,11.2
2023-02-17T23:57:27.704Z,11.1
